sensor_id;sensor_type;location;lat;lon;timestamp;pressure;altitude;pressure_sealevel;temperature;humidity
11542;BME280;5827;49.482;7.716;2022-10-28T00:00:50;99455.72;;;14.29;100.00
11542;BME280;5827;49.482;7.716;2022-10-28T00:02:53;99460.94;;;14.36;100.00
11542;BME280;5827;49.482;7.716;2022-10-28T00:04:54;99463.44;;;14.42;100.00
11542;BME280;5827;49.482;7.716;2022-10-28T00:06:56;99465.63;;;14.45;100.00
11542;BME280;5827;49.482;7.716;2022-10-28T00:08:58;99464.50;;;14.41;100.00
11542;BME280;5827;49.482;7.716;2022-10-28T00:11:01;99452.16;;;14.45;100.00
11542;BME280;5827;49.482;7.716;2022-10-28T00:13:03;99460.75;;;14.64;100.00
11542;BME280;5827;49.482;7.716;2022-10-28T00:15:05;99453.19;;;14.39;100.00
11542;BME280;5827;49.482;7.716;2022-10-28T00:17:07;99444.50;;;14.37;100.00
11542;BME280;5827;49.482;7.716;2022-10-28T00:19:11;99449.53;;;14.29;100.00
11542;BME280;5827;49.482;7.716;2022-10-28T00:21:16;99449.56;;;14.34;100.00
11542;BME280;5827;49.482;7.716;2022-10-28T00:23:17;99451.84;;;14.42;100.00
11542;BME280;5827;49.482;7.716;2022-10-28T00:25:19;99441.81;;;14.37;100.00
11542;BME280;5827;49.482;7.716;2022-10-28T00:27:24;99451.03;;;14.41;100.00
11542;BME280;5827;49.482;7.716;2022-10-28T00:29:25;99446.44;;;14.42;100.00
11542;BME280;5827;49.482;7.716;2022-10-28T00:31:28;99442.44;;;14.22;100.00
11542;BME280;5827;49.482;7.716;2022-10-28T00:33:30;99446.53;;;14.25;100.00
11542;BME280;5827;49.482;7.716;2022-10-28T00:35:33;99451.66;;;14.27;100.00
11542;BME280;5827;49.482;7.716;2022-10-28T00:37:34;99453.78;;;14.24;100.00
11542;BME280;5827;49.482;7.716;2022-10-28T00:39:36;99450.47;;;14.17;100.00
11542;BME280;5827;49.482;7.716;2022-10-28T00:41:39;99453.88;;;14.30;100.00
11542;BME280;5827;49.482;7.716;2022-10-28T00:43:43;99454.22;;;14.16;100.00
11542;BME280;5827;49.482;7.716;2022-10-28T00:45:45;99458.22;;;14.14;100.00
11542;BME280;5827;49.482;7.716;2022-10-28T00:47:49;99461.81;;;14.19;100.00
11542;BME280;5827;49.482;7.716;2022-10-28T00:50:02;99454.28;;;14.21;100.00
11542;BME280;5827;49.482;7.716;2022-10-28T00:52:09;99457.97;;;14.15;100.00
11542;BME280;5827;49.482;7.716;2022-10-28T00:54:13;99455.47;;;14.09;100.00
11542;BME280;5827;49.482;7.716;2022-10-28T00:56:16;99450.53;;;14.22;100.00
11542;BME280;5827;49.482;7.716;2022-10-28T00:58:20;99450.72;;;14.16;100.00
11542;BME280;5827;49.482;7.716;2022-10-28T01:00:23;99442.19;;;14.24;100.00
11542;BME280;5827;49.482;7.716;2022-10-28T01:02:25;99453.03;;;14.29;100.00
11542;BME280;5827;49.482;7.716;2022-10-28T01:04:27;99450.03;;;14.26;100.00
11542;BME280;5827;49.482;7.716;2022-10-28T01:06:29;99446.28;;;14.27;100.00
11542;BME280;5827;49.482;7.716;2022-10-28T01:08:32;99445.03;;;14.34;100.00
11542;BME280;5827;49.482;7.716;2022-10-28T01:11:02;99433.66;;;14.32;100.00
11542;BME280;5827;49.482;7.716;2022-10-28T01:13:12;99442.56;;;14.33;100.00
11542;BME280;5827;49.482;7.716;2022-10-28T01:15:22;99433.22;;;14.40;100.00
11542;BME280;5827;49.482;7.716;2022-10-28T01:17:34;99432.72;;;14.43;100.00
11542;BME280;5827;49.482;7.716;2022-10-28T01:20:17;99433.22;;;14.40;100.00
11542;BME280;5827;49.482;7.716;2022-10-28T01:22:28;99430.59;;;14.45;100.00
11542;BME280;5827;49.482;7.716;2022-10-28T01:24:49;99429.31;;;14.48;100.00
11542;BME280;5827;49.482;7.716;2022-10-28T01:27:17;99432.47;;;14.45;100.00
11542;BME280;5827;49.482;7.716;2022-10-28T01:30:08;99432.97;;;14.42;100.00
11542;BME280;5827;49.482;7.716;2022-10-28T01:32:16;99430.28;;;14.42;100.00
11542;BME280;5827;49.482;7.716;2022-10-28T01:34:26;99422.72;;;14.39;100.00
11542;BME280;5827;49.482;7.716;2022-10-28T01:36:35;99424.78;;;14.54;100.00
11542;BME280;5827;49.482;7.716;2022-10-28T01:38:45;99423.91;;;14.48;100.00
11542;BME280;5827;49.482;7.716;2022-10-28T01:40:54;99421.44;;;14.46;100.00
11542;BME280;5827;49.482;7.716;2022-10-28T01:43:05;99423.66;;;14.49;100.00
11542;BME280;5827;49.482;7.716;2022-10-28T01:45:13;99417.19;;;14.51;100.00
11542;BME280;5827;49.482;7.716;2022-10-28T01:47:20;99404.53;;;14.51;100.00
11542;BME280;5827;49.482;7.716;2022-10-28T01:49:24;99402.75;;;14.62;100.00
11542;BME280;5827;49.482;7.716;2022-10-28T01:51:31;99395.75;;;14.66;100.00
11542;BME280;5827;49.482;7.716;2022-10-28T01:53:38;99390.63;;;14.64;100.00
11542;BME280;5827;49.482;7.716;2022-10-28T01:55:43;99384.75;;;14.67;100.00
11542;BME280;5827;49.482;7.716;2022-10-28T01:57:47;99384.69;;;14.62;100.00
11542;BME280;5827;49.482;7.716;2022-10-28T01:59:51;99381.06;;;14.79;100.00
11542;BME280;5827;49.482;7.716;2022-10-28T02:01:53;99373.50;;;14.76;100.00
11542;BME280;5827;49.482;7.716;2022-10-28T02:03:57;99372.56;;;14.65;100.00
11542;BME280;5827;49.482;7.716;2022-10-28T02:06:01;99372.34;;;14.66;100.00
11542;BME280;5827;49.482;7.716;2022-10-28T02:08:14;99371.03;;;14.74;100.00
11542;BME280;5827;49.482;7.716;2022-10-28T02:10:22;99370.84;;;14.81;100.00
11542;BME280;5827;49.482;7.716;2022-10-28T02:12:27;99367.88;;;14.82;100.00
11542;BME280;5827;49.482;7.716;2022-10-28T02:14:42;99367.78;;;14.72;100.00
11542;BME280;5827;49.482;7.716;2022-10-28T02:16:50;99364.53;;;14.70;100.00
11542;BME280;5827;49.482;7.716;2022-10-28T02:19:02;99365.19;;;14.55;100.00
11542;BME280;5827;49.482;7.716;2022-10-28T02:21:14;99353.16;;;14.41;100.00
11542;BME280;5827;49.482;7.716;2022-10-28T02:23:26;99346.53;;;14.48;100.00
11542;BME280;5827;49.482;7.716;2022-10-28T02:25:32;99344.22;;;14.35;100.00
11542;BME280;5827;49.482;7.716;2022-10-28T02:27:42;99347.72;;;14.36;100.00
11542;BME280;5827;49.482;7.716;2022-10-28T02:29:49;99344.56;;;14.44;100.00
11542;BME280;5827;49.482;7.716;2022-10-28T02:31:56;99342.69;;;14.44;100.00
11542;BME280;5827;49.482;7.716;2022-10-28T02:34:03;99349.06;;;14.38;100.00
11542;BME280;5827;49.482;7.716;2022-10-28T02:36:11;99349.06;;;14.38;100.00
11542;BME280;5827;49.482;7.716;2022-10-28T02:38:17;99346.28;;;14.50;100.00
11542;BME280;5827;49.482;7.716;2022-10-28T02:40:23;99342.75;;;14.49;100.00
11542;BME280;5827;49.482;7.716;2022-10-28T02:42:29;99333.88;;;14.49;100.00
11542;BME280;5827;49.482;7.716;2022-10-28T02:44:34;99349.00;;;14.55;100.00
11542;BME280;5827;49.482;7.716;2022-10-28T02:46:41;99344.75;;;14.37;100.00
11542;BME280;5827;49.482;7.716;2022-10-28T02:48:46;99345.88;;;14.41;100.00
11542;BME280;5827;49.482;7.716;2022-10-28T02:50:54;99348.56;;;14.41;100.00
11542;BME280;5827;49.482;7.716;2022-10-28T02:53:00;99347.81;;;14.46;100.00
11542;BME280;5827;49.482;7.716;2022-10-28T02:55:05;99348.84;;;14.40;100.00
11542;BME280;5827;49.482;7.716;2022-10-28T02:57:11;99341.34;;;14.47;100.00
11542;BME280;5827;49.482;7.716;2022-10-28T02:59:13;99341.22;;;14.59;100.00
11542;BME280;5827;49.482;7.716;2022-10-28T03:01:15;99339.03;;;14.56;100.00
11542;BME280;5827;49.482;7.716;2022-10-28T03:03:17;99335.53;;;14.55;100.00
11542;BME280;5827;49.482;7.716;2022-10-28T03:05:18;99335.41;;;14.45;100.00
11542;BME280;5827;49.482;7.716;2022-10-28T03:07:21;99338.22;;;14.55;100.00
11542;BME280;5827;49.482;7.716;2022-10-28T03:09:23;99336.66;;;14.59;100.00
11542;BME280;5827;49.482;7.716;2022-10-28T03:11:24;99333.66;;;14.56;100.00
11542;BME280;5827;49.482;7.716;2022-10-28T03:13:26;99330.94;;;14.56;100.00
11542;BME280;5827;49.482;7.716;2022-10-28T03:15:27;99333.25;;;14.47;100.00
11542;BME280;5827;49.482;7.716;2022-10-28T03:17:29;99332.72;;;14.45;100.00
11542;BME280;5827;49.482;7.716;2022-10-28T03:19:31;99330.34;;;14.48;100.00
11542;BME280;5827;49.482;7.716;2022-10-28T03:21:32;99328.47;;;14.49;100.00
11542;BME280;5827;49.482;7.716;2022-10-28T03:23:35;99330.47;;;14.37;100.00
11542;BME280;5827;49.482;7.716;2022-10-28T03:25:37;99327.81;;;14.42;100.00
11542;BME280;5827;49.482;7.716;2022-10-28T03:27:38;99326.84;;;14.48;100.00
11542;BME280;5827;49.482;7.716;2022-10-28T03:29:41;99324.56;;;14.40;100.00
11542;BME280;5827;49.482;7.716;2022-10-28T03:31:42;99333.75;;;14.39;100.00
11542;BME280;5827;49.482;7.716;2022-10-28T03:33:44;99325.03;;;14.32;100.00
11542;BME280;5827;49.482;7.716;2022-10-28T03:35:46;99334.25;;;14.36;100.00
11542;BME280;5827;49.482;7.716;2022-10-28T03:37:47;99338.59;;;14.42;100.00
11542;BME280;5827;49.482;7.716;2022-10-28T03:39:50;99333.47;;;14.40;100.00
11542;BME280;5827;49.482;7.716;2022-10-28T03:41:51;99331.81;;;14.34;100.00
11542;BME280;5827;49.482;7.716;2022-10-28T03:43:53;99326.97;;;14.36;100.00
11542;BME280;5827;49.482;7.716;2022-10-28T03:45:55;99336.34;;;14.34;100.00
11542;BME280;5827;49.482;7.716;2022-10-28T03:47:56;99327.22;;;14.35;100.00
11542;BME280;5827;49.482;7.716;2022-10-28T03:49:58;99329.28;;;14.28;100.00
11542;BME280;5827;49.482;7.716;2022-10-28T03:51:59;99321.47;;;14.26;100.00
11542;BME280;5827;49.482;7.716;2022-10-28T03:54:01;99330.91;;;14.29;100.00
11542;BME280;5827;49.482;7.716;2022-10-28T03:56:04;99334.19;;;14.31;100.00
11542;BME280;5827;49.482;7.716;2022-10-28T03:58:06;99340.56;;;14.24;100.00
11542;BME280;5827;49.482;7.716;2022-10-28T04:00:08;99339.06;;;14.07;100.00
11542;BME280;5827;49.482;7.716;2022-10-28T04:02:10;99334.47;;;14.07;100.00
11542;BME280;5827;49.482;7.716;2022-10-28T04:04:11;99346.38;;;14.11;100.00
11542;BME280;5827;49.482;7.716;2022-10-28T04:06:13;99340.56;;;13.97;100.00
11542;BME280;5827;49.482;7.716;2022-10-28T04:08:16;99338.97;;;14.02;100.00
11542;BME280;5827;49.482;7.716;2022-10-28T04:10:18;99336.03;;;13.81;100.00
11542;BME280;5827;49.482;7.716;2022-10-28T04:12:21;99341.31;;;13.93;100.00
11542;BME280;5827;49.482;7.716;2022-10-28T04:14:23;99342.34;;;13.92;100.00
11542;BME280;5827;49.482;7.716;2022-10-28T04:16:24;99337.88;;;13.97;100.00
11542;BME280;5827;49.482;7.716;2022-10-28T04:18:26;99344.88;;;13.98;100.00
11542;BME280;5827;49.482;7.716;2022-10-28T04:20:28;99337.41;;;14.06;100.00
11542;BME280;5827;49.482;7.716;2022-10-28T04:22:29;99340.63;;;14.03;100.00
11542;BME280;5827;49.482;7.716;2022-10-28T04:24:31;99333.13;;;14.10;100.00
11542;BME280;5827;49.482;7.716;2022-10-28T04:26:32;99333.94;;;14.10;100.00
11542;BME280;5827;49.482;7.716;2022-10-28T04:28:35;99336.53;;;14.00;100.00
11542;BME280;5827;49.482;7.716;2022-10-28T04:30:37;99332.75;;;14.01;100.00
11542;BME280;5827;49.482;7.716;2022-10-28T04:32:39;99331.16;;;14.00;100.00
11542;BME280;5827;49.482;7.716;2022-10-28T04:34:42;99332.97;;;13.94;100.00
11542;BME280;5827;49.482;7.716;2022-10-28T04:36:44;99324.78;;;13.84;100.00
11542;BME280;5827;49.482;7.716;2022-10-28T04:38:45;99331.66;;;13.75;100.00
11542;BME280;5827;49.482;7.716;2022-10-28T04:40:47;99327.47;;;13.84;100.00
11542;BME280;5827;49.482;7.716;2022-10-28T04:42:49;99328.59;;;13.88;100.00
11542;BME280;5827;49.482;7.716;2022-10-28T04:44:52;99322.69;;;13.91;100.00
11542;BME280;5827;49.482;7.716;2022-10-28T04:46:54;99315.03;;;13.83;100.00
11542;BME280;5827;49.482;7.716;2022-10-28T04:48:56;99319.66;;;13.88;100.00
11542;BME280;5827;49.482;7.716;2022-10-28T04:50:57;99316.38;;;13.81;100.00
11542;BME280;5827;49.482;7.716;2022-10-28T04:52:59;99308.34;;;13.86;100.00
11542;BME280;5827;49.482;7.716;2022-10-28T04:55:00;99311.84;;;13.86;100.00
11542;BME280;5827;49.482;7.716;2022-10-28T04:57:02;99309.22;;;13.69;100.00
11542;BME280;5827;49.482;7.716;2022-10-28T04:59:04;99310.09;;;13.53;100.00
11542;BME280;5827;49.482;7.716;2022-10-28T05:01:07;99310.72;;;13.82;100.00
11542;BME280;5827;49.482;7.716;2022-10-28T05:03:09;99314.16;;;13.78;100.00
11542;BME280;5827;49.482;7.716;2022-10-28T05:05:11;99307.72;;;13.79;100.00
11542;BME280;5827;49.482;7.716;2022-10-28T05:07:13;99298.44;;;13.69;100.00
11542;BME280;5827;49.482;7.716;2022-10-28T05:09:15;99310.59;;;13.72;100.00
11542;BME280;5827;49.482;7.716;2022-10-28T05:11:17;99315.44;;;13.70;100.00
11542;BME280;5827;49.482;7.716;2022-10-28T05:13:19;99320.50;;;13.66;100.00
11542;BME280;5827;49.482;7.716;2022-10-28T05:15:20;99310.41;;;13.57;100.00
11542;BME280;5827;49.482;7.716;2022-10-28T05:17:23;99316.19;;;13.65;100.00
11542;BME280;5827;49.482;7.716;2022-10-28T05:19:25;99317.75;;;13.61;100.00
11542;BME280;5827;49.482;7.716;2022-10-28T05:21:27;99314.00;;;13.62;100.00
11542;BME280;5827;49.482;7.716;2022-10-28T05:23:28;99310.66;;;13.55;100.00
11542;BME280;5827;49.482;7.716;2022-10-28T05:25:30;99317.09;;;13.54;100.00
11542;BME280;5827;49.482;7.716;2022-10-28T05:27:37;99317.09;;;13.54;100.00
11542;BME280;5827;49.482;7.716;2022-10-28T05:29:39;99304.56;;;13.65;100.00
11542;BME280;5827;49.482;7.716;2022-10-28T05:31:41;99314.31;;;13.66;100.00
11542;BME280;5827;49.482;7.716;2022-10-28T05:33:44;99318.88;;;13.65;100.00
11542;BME280;5827;49.482;7.716;2022-10-28T05:35:51;99303.81;;;13.69;100.00
11542;BME280;5827;49.482;7.716;2022-10-28T05:38:02;99311.69;;;13.71;100.00
11542;BME280;5827;49.482;7.716;2022-10-28T05:40:20;99305.22;;;13.72;100.00
11542;BME280;5827;49.482;7.716;2022-10-28T05:42:23;99306.34;;;13.76;100.00
11542;BME280;5827;49.482;7.716;2022-10-28T05:44:28;99300.91;;;13.71;100.00
11542;BME280;5827;49.482;7.716;2022-10-28T05:46:32;99308.72;;;13.72;100.00
11542;BME280;5827;49.482;7.716;2022-10-28T05:48:44;99312.00;;;13.75;100.00
11542;BME280;5827;49.482;7.716;2022-10-28T05:50:51;99308.78;;;13.78;100.00
11542;BME280;5827;49.482;7.716;2022-10-28T05:53:10;99312.44;;;13.88;100.00
11542;BME280;5827;49.482;7.716;2022-10-28T05:55:15;99312.59;;;13.82;100.00
11542;BME280;5827;49.482;7.716;2022-10-28T05:57:18;99308.03;;;13.82;100.00
11542;BME280;5827;49.482;7.716;2022-10-28T05:59:29;99307.53;;;13.85;100.00
11542;BME280;5827;49.482;7.716;2022-10-28T06:01:31;99313.75;;;13.86;100.00
11542;BME280;5827;49.482;7.716;2022-10-28T06:03:37;99315.25;;;13.77;100.00
11542;BME280;5827;49.482;7.716;2022-10-28T06:05:47;99315.25;;;13.77;100.00
11542;BME280;5827;49.482;7.716;2022-10-28T06:07:48;99313.31;;;13.72;100.00
11542;BME280;5827;49.482;7.716;2022-10-28T06:09:51;99317.94;;;13.77;100.00
11542;BME280;5827;49.482;7.716;2022-10-28T06:11:53;99318.13;;;13.70;100.00
11542;BME280;5827;49.482;7.716;2022-10-28T06:13:58;99320.06;;;13.75;100.00
11542;BME280;5827;49.482;7.716;2022-10-28T06:15:59;99315.72;;;13.73;100.00
11542;BME280;5827;49.482;7.716;2022-10-28T06:18:01;99316.53;;;13.74;100.00
11542;BME280;5827;49.482;7.716;2022-10-28T06:20:04;99321.75;;;13.81;100.00
11542;BME280;5827;49.482;7.716;2022-10-28T06:22:07;99317.72;;;13.83;100.00
11542;BME280;5827;49.482;7.716;2022-10-28T06:24:11;99322.06;;;13.84;100.00
11542;BME280;5827;49.482;7.716;2022-10-28T06:26:13;99330.16;;;13.84;100.00
11542;BME280;5827;49.482;7.716;2022-10-28T06:28:14;99333.47;;;13.91;100.00
11542;BME280;5827;49.482;7.716;2022-10-28T06:30:22;99332.91;;;13.89;100.00
11542;BME280;5827;49.482;7.716;2022-10-28T06:32:27;99340.13;;;13.84;100.00
11542;BME280;5827;49.482;7.716;2022-10-28T06:34:32;99339.06;;;13.85;100.00
11542;BME280;5827;49.482;7.716;2022-10-28T06:36:34;99339.88;;;13.85;100.00
11542;BME280;5827;49.482;7.716;2022-10-28T06:38:40;99347.69;;;13.87;100.00
11542;BME280;5827;49.482;7.716;2022-10-28T06:40:42;99339.59;;;13.87;100.00
11542;BME280;5827;49.482;7.716;2022-10-28T06:42:44;99342.63;;;13.90;100.00
11542;BME280;5827;49.482;7.716;2022-10-28T06:44:45;99349.50;;;13.81;100.00
11542;BME280;5827;49.482;7.716;2022-10-28T06:46:47;99338.47;;;13.83;100.00
11542;BME280;5827;49.482;7.716;2022-10-28T06:48:49;99351.00;;;13.72;100.00
11542;BME280;5827;49.482;7.716;2022-10-28T06:50:50;99347.56;;;13.77;100.00
11542;BME280;5827;49.482;7.716;2022-10-28T06:52:54;99354.53;;;13.94;100.00
11542;BME280;5827;49.482;7.716;2022-10-28T06:54:58;99354.69;;;13.88;100.00
11542;BME280;5827;49.482;7.716;2022-10-28T06:57:00;99351.94;;;13.83;100.00
11542;BME280;5827;49.482;7.716;2022-10-28T06:59:01;99353.34;;;13.85;100.00
11542;BME280;5827;49.482;7.716;2022-10-28T07:01:03;99355.59;;;13.93;100.00
11542;BME280;5827;49.482;7.716;2022-10-28T07:03:05;99352.38;;;13.96;100.00
11542;BME280;5827;49.482;7.716;2022-10-28T07:05:08;99356.16;;;13.95;100.00
11542;BME280;5827;49.482;7.716;2022-10-28T07:07:09;99353.78;;;13.99;100.00
11542;BME280;5827;49.482;7.716;2022-10-28T07:09:22;99359.72;;;14.01;100.00
11542;BME280;5827;49.482;7.716;2022-10-28T07:11:31;99358.88;;;13.79;100.00
11542;BME280;5827;49.482;7.716;2022-10-28T07:13:33;99349.31;;;13.88;100.00
11542;BME280;5827;49.482;7.716;2022-10-28T07:15:34;99362.03;;;13.92;100.00
11542;BME280;5827;49.482;7.716;2022-10-28T07:17:36;99359.41;;;13.97;100.00
11542;BME280;5827;49.482;7.716;2022-10-28T07:19:38;99361.66;;;14.06;100.00
11542;BME280;5827;49.482;7.716;2022-10-28T07:21:39;99362.47;;;14.06;100.00
11542;BME280;5827;49.482;7.716;2022-10-28T07:23:41;99359.59;;;14.13;100.00
11542;BME280;5827;49.482;7.716;2022-10-28T07:25:42;99364.28;;;14.22;100.00
11542;BME280;5827;49.482;7.716;2022-10-28T07:27:46;99365.41;;;14.27;100.00
11542;BME280;5827;49.482;7.716;2022-10-28T07:29:47;99365.16;;;14.28;100.00
11542;BME280;5827;49.482;7.716;2022-10-28T07:31:52;99361.91;;;14.26;100.00
11542;BME280;5827;49.482;7.716;2022-10-28T07:33:54;99366.22;;;14.27;100.00
11542;BME280;5827;49.482;7.716;2022-10-28T07:35:55;99361.91;;;14.26;100.00
11542;BME280;5827;49.482;7.716;2022-10-28T07:37:57;99369.78;;;14.33;100.00
11542;BME280;5827;49.482;7.716;2022-10-28T07:39:59;99367.09;;;14.33;100.00
11542;BME280;5827;49.482;7.716;2022-10-28T07:42:00;99372.56;;;14.43;100.00
11542;BME280;5827;49.482;7.716;2022-10-28T07:44:03;99373.50;;;14.48;100.00
11542;BME280;5827;49.482;7.716;2022-10-28T07:46:06;99373.78;;;14.52;100.00
11542;BME280;5827;49.482;7.716;2022-10-28T07:48:08;99385.13;;;14.32;100.00
11542;BME280;5827;49.482;7.716;2022-10-28T07:50:10;99380.16;;;14.46;100.00
11542;BME280;5827;49.482;7.716;2022-10-28T07:52:12;99381.31;;;14.50;100.00
11542;BME280;5827;49.482;7.716;2022-10-28T07:54:13;99380.81;;;14.53;100.00
11542;BME280;5827;49.482;7.716;2022-10-28T07:56:15;99384.03;;;14.50;100.00
11542;BME280;5827;49.482;7.716;2022-10-28T07:58:16;99385.66;;;14.51;100.00
11542;BME280;5827;49.482;7.716;2022-10-28T08:00:19;99386.81;;;14.60;100.00
11542;BME280;5827;49.482;7.716;2022-10-28T08:02:22;99389.38;;;14.72;100.00
11542;BME280;5827;49.482;7.716;2022-10-28T08:04:24;99385.34;;;14.74;100.00
11542;BME280;5827;49.482;7.716;2022-10-28T08:06:29;99393.97;;;14.71;100.00
11542;BME280;5827;49.482;7.716;2022-10-28T08:08:30;99379.22;;;14.84;100.00
11542;BME280;5827;49.482;7.716;2022-10-28T08:10:32;99388.47;;;14.93;100.00
11542;BME280;5827;49.482;7.716;2022-10-28T08:12:33;99389.19;;;14.84;100.00
11542;BME280;5827;49.482;7.716;2022-10-28T08:14:35;99396.84;;;14.92;100.00
11542;BME280;5827;49.482;7.716;2022-10-28T08:16:38;99393.38;;;14.96;100.00
11542;BME280;5827;49.482;7.716;2022-10-28T08:18:40;99395.31;;;14.74;100.00
11542;BME280;5827;49.482;7.716;2022-10-28T08:20:42;99388.66;;;14.82;100.00
11542;BME280;5827;49.482;7.716;2022-10-28T08:22:43;99385.06;;;14.71;100.00
11542;BME280;5827;49.482;7.716;2022-10-28T08:24:45;99389.16;;;14.79;100.00
11542;BME280;5827;49.482;7.716;2022-10-28T08:26:47;99389.72;;;14.81;100.00
11542;BME280;5827;49.482;7.716;2022-10-28T08:28:48;99393.59;;;14.90;100.00
11542;BME280;5827;49.482;7.716;2022-10-28T08:30:50;99385.53;;;14.95;100.00
11542;BME280;5827;49.482;7.716;2022-10-28T08:32:55;99386.34;;;14.95;100.00
11542;BME280;5827;49.482;7.716;2022-10-28T08:34:57;99393.31;;;14.91;100.00
11542;BME280;5827;49.482;7.716;2022-10-28T08:36:59;99396.06;;;14.96;100.00
11542;BME280;5827;49.482;7.716;2022-10-28T08:39:01;99404.25;;;15.07;100.00
11542;BME280;5827;49.482;7.716;2022-10-28T08:41:11;99400.44;;;15.03;100.00
11542;BME280;5827;49.482;7.716;2022-10-28T08:43:22;99390.91;;;15.22;100.00
11542;BME280;5827;49.482;7.716;2022-10-28T08:45:36;99395.72;;;15.20;100.00
11542;BME280;5827;49.482;7.716;2022-10-28T08:47:49;99395.22;;;15.23;100.00
11542;BME280;5827;49.482;7.716;2022-10-28T08:49:59;99392.06;;;15.36;100.00
11542;BME280;5827;49.482;7.716;2022-10-28T08:52:07;99381.56;;;15.40;100.00
11542;BME280;5827;49.482;7.716;2022-10-28T08:54:13;99386.47;;;15.48;100.00
11542;BME280;5827;49.482;7.716;2022-10-28T08:56:23;99386.28;;;15.60;100.00
11542;BME280;5827;49.482;7.716;2022-10-28T08:58:31;99379.06;;;15.70;100.00
11542;BME280;5827;49.482;7.716;2022-10-28T09:00:35;99380.19;;;15.74;100.00
11542;BME280;5827;49.482;7.716;2022-10-28T09:02:48;99385.59;;;15.80;100.00
11542;BME280;5827;49.482;7.716;2022-10-28T09:04:57;99391.09;;;15.90;100.00
11542;BME280;5827;49.482;7.716;2022-10-28T09:07:01;99397.88;;;16.02;100.00
11542;BME280;5827;49.482;7.716;2022-10-28T09:09:03;99396.03;;;16.08;100.00
11542;BME280;5827;49.482;7.716;2022-10-28T09:11:19;99401.72;;;16.12;100.00
11542;BME280;5827;49.482;7.716;2022-10-28T09:13:33;99401.78;;;16.22;100.00
11542;BME280;5827;49.482;7.716;2022-10-28T09:15:42;99397.41;;;16.21;100.00
11542;BME280;5827;49.482;7.716;2022-10-28T09:17:52;99399.63;;;16.29;100.00
11542;BME280;5827;49.482;7.716;2022-10-28T09:20:03;99404.53;;;16.37;100.00
11542;BME280;5827;49.482;7.716;2022-10-28T09:22:17;99404.56;;;16.47;100.00
11542;BME280;5827;49.482;7.716;2022-10-28T09:24:24;99404.03;;;16.61;100.00
11542;BME280;5827;49.482;7.716;2022-10-28T09:26:42;99402.16;;;16.71;100.00
11542;BME280;5827;49.482;7.716;2022-10-28T09:28:55;99405.75;;;16.82;100.00
11542;BME280;5827;49.482;7.716;2022-10-28T09:31:08;99403.84;;;16.98;100.00
11542;BME280;5827;49.482;7.716;2022-10-28T09:33:29;99409.28;;;17.08;100.00
11542;BME280;5827;49.482;7.716;2022-10-28T09:35:40;99406.84;;;17.22;100.00
11542;BME280;5827;49.482;7.716;2022-10-28T09:37:46;99397.38;;;17.35;100.00
11542;BME280;5827;49.482;7.716;2022-10-28T09:39:52;99395.72;;;17.44;100.00
11542;BME280;5827;49.482;7.716;2022-10-28T09:41:57;99401.13;;;17.59;100.00
11542;BME280;5827;49.482;7.716;2022-10-28T09:44:06;99397.31;;;17.70;100.00
11542;BME280;5827;49.482;7.716;2022-10-28T09:46:12;99394.34;;;17.77;100.00
11542;BME280;5827;49.482;7.716;2022-10-28T09:48:19;99399.47;;;17.89;100.00
11542;BME280;5827;49.482;7.716;2022-10-28T09:50:27;99383.44;;;17.97;100.00
11542;BME280;5827;49.482;7.716;2022-10-28T09:52:35;99387.19;;;18.12;100.00
11542;BME280;5827;49.482;7.716;2022-10-28T09:54:43;99391.75;;;18.21;100.00
11542;BME280;5827;49.482;7.716;2022-10-28T09:56:46;99393.34;;;18.33;100.00
11542;BME280;5827;49.482;7.716;2022-10-28T09:58:48;99394.09;;;18.43;100.00
11542;BME280;5827;49.482;7.716;2022-10-28T10:00:49;99393.22;;;18.53;100.00
11542;BME280;5827;49.482;7.716;2022-10-28T10:02:54;99396.72;;;18.59;100.00
11542;BME280;5827;49.482;7.716;2022-10-28T10:04:59;99387.97;;;18.67;100.00
11542;BME280;5827;49.482;7.716;2022-10-28T10:07:04;99391.75;;;18.76;100.00
11542;BME280;5827;49.482;7.716;2022-10-28T10:09:15;99400.88;;;18.90;100.00
11542;BME280;5827;49.482;7.716;2022-10-28T10:11:26;99404.91;;;18.98;100.00
11542;BME280;5827;49.482;7.716;2022-10-28T10:13:33;99410.25;;;19.08;100.00
11542;BME280;5827;49.482;7.716;2022-10-28T10:15:37;99412.91;;;19.18;100.00
11542;BME280;5827;49.482;7.716;2022-10-28T10:17:42;99412.16;;;19.42;100.00
11542;BME280;5827;49.482;7.716;2022-10-28T10:19:58;99416.69;;;19.51;100.00
11542;BME280;5827;49.482;7.716;2022-10-28T10:22:00;99409.00;;;19.64;100.00
11542;BME280;5827;49.482;7.716;2022-10-28T10:26:23;99421.53;;;19.89;100.00
11542;BME280;5827;49.482;7.716;2022-10-28T10:28:26;99410.59;;;19.94;100.00
11542;BME280;5827;49.482;7.716;2022-10-28T10:30:30;99405.34;;;19.97;100.00
11542;BME280;5827;49.482;7.716;2022-10-28T10:32:33;99401.19;;;20.05;100.00
11542;BME280;5827;49.482;7.716;2022-10-28T10:34:36;99404.91;;;20.14;100.00
11542;BME280;5827;49.482;7.716;2022-10-28T10:36:48;99409.16;;;20.20;100.00
11542;BME280;5827;49.482;7.716;2022-10-28T10:38:51;99406.09;;;20.27;100.00
11542;BME280;5827;49.482;7.716;2022-10-28T10:40:54;99404.50;;;20.26;100.00
11542;BME280;5827;49.482;7.716;2022-10-28T10:43:14;99404.94;;;20.33;100.00
11542;BME280;5827;49.482;7.716;2022-10-28T10:45:22;99403.25;;;20.37;100.00
11542;BME280;5827;49.482;7.716;2022-10-28T10:47:24;99403.03;;;20.58;100.00
11542;BME280;5827;49.482;7.716;2022-10-28T10:49:27;99401.59;;;20.60;100.00
11542;BME280;5827;49.482;7.716;2022-10-28T10:51:28;99412.50;;;20.60;100.00
11542;BME280;5827;49.482;7.716;2022-10-28T10:53:31;99397.19;;;20.64;99.12
11542;BME280;5827;49.482;7.716;2022-10-28T10:55:35;99397.28;;;20.78;100.00
11542;BME280;5827;49.482;7.716;2022-10-28T10:57:37;99400.63;;;20.89;99.24
11542;BME280;5827;49.482;7.716;2022-10-28T10:59:44;99396.00;;;21.08;97.69
11542;BME280;5827;49.482;7.716;2022-10-28T11:01:46;99390.38;;;21.18;96.50
11542;BME280;5827;49.482;7.716;2022-10-28T11:03:52;99394.63;;;21.24;95.11